sensor_id;sensor_type;location;lat;lon;timestamp;pressure;altitude;pressure_sealevel;temperature;humidity
49877;BME280;35771;48.978;9.294;2022-11-12T10:25:23;100559.84;;;7.29;100.00
49877;BME280;35771;48.978;9.294;2022-11-12T10:27:50;100562.97;;;7.46;100.00
49877;BME280;35771;48.978;9.294;2022-11-12T10:30:21;100545.38;;;7.51;100.00
49877;BME280;35771;48.978;9.294;2022-11-12T10:32:50;100546.22;;;7.73;100.00
49877;BME280;35771;48.978;9.294;2022-11-12T10:35:20;100547.56;;;7.88;100.00
49877;BME280;35771;48.978;9.294;2022-11-12T10:37:50;100555.50;;;8.01;100.00
49877;BME280;35771;48.978;9.294;2022-11-12T10:40:35;100549.53;;;8.07;100.00
49877;BME280;35771;48.978;9.294;2022-11-12T10:43:20;100546.44;;;8.12;100.00
49877;BME280;35771;48.978;9.294;2022-11-12T10:45:48;100542.22;;;8.29;100.00
49877;BME280;35771;48.978;9.294;2022-11-12T10:48:23;100524.78;;;8.22;100.00
49877;BME280;35771;48.978;9.294;2022-11-12T10:50:53;100520.41;;;8.30;100.00
49877;BME280;35771;48.978;9.294;2022-11-12T10:53:32;100550.09;;;8.63;100.00
49877;BME280;35771;48.978;9.294;2022-11-12T10:56:02;100522.78;;;8.45;100.00
49877;BME280;35771;48.978;9.294;2022-11-12T10:58:29;100516.34;;;8.46;100.00
49877;BME280;35771;48.978;9.294;2022-11-12T11:01:01;100542.41;;;8.78;100.00
49877;BME280;35771;48.978;9.294;2022-11-12T11:03:31;100537.56;;;8.91;100.00
49877;BME280;35771;48.978;9.294;2022-11-12T11:06:01;100531.47;;;8.99;100.00
49877;BME280;35771;48.978;9.294;2022-11-12T11:08:37;100519.72;;;8.89;100.00
49877;BME280;35771;48.978;9.294;2022-11-12T11:11:19;100523.03;;;9.02;100.00
49877;BME280;35771;48.978;9.294;2022-11-12T11:13:48;100524.16;;;8.99;100.00
49877;BME280;35771;48.978;9.294;2022-11-12T11:16:17;100512.31;;;9.10;100.00
49877;BME280;35771;48.978;9.294;2022-11-12T11:18:47;100520.75;;;9.27;100.00
49877;BME280;35771;48.978;9.294;2022-11-12T11:21:47;100501.34;;;9.21;100.00
49877;BME280;35771;48.978;9.294;2022-11-12T11:24:31;100515.03;;;9.39;100.00
49877;BME280;35771;48.978;9.294;2022-11-12T11:27:04;100517.00;;;9.57;100.00
49877;BME280;35771;48.978;9.294;2022-11-12T11:29:43;100525.00;;;9.59;100.00
49877;BME280;35771;48.978;9.294;2022-11-12T11:32:25;100501.28;;;9.51;100.00
49877;BME280;35771;48.978;9.294;2022-11-12T11:35:10;100510.53;;;9.68;100.00
49877;BME280;35771;48.978;9.294;2022-11-12T11:37:46;100507.06;;;9.85;100.00
49877;BME280;35771;48.978;9.294;2022-11-12T11:40:23;100510.50;;;9.87;100.00
49877;BME280;35771;48.978;9.294;2022-11-12T11:46:05;100489.63;;;9.88;100.00
49877;BME280;35771;48.978;9.294;2022-11-12T11:48:46;100498.63;;;9.88;100.00
49877;BME280;35771;48.978;9.294;2022-11-12T11:51:29;100492.59;;;9.95;100.00
49877;BME280;35771;48.978;9.294;2022-11-12T11:54:13;100491.19;;;9.90;100.00
49877;BME280;35771;48.978;9.294;2022-11-12T11:56:48;100496.66;;;9.81;100.00
49877;BME280;35771;48.978;9.294;2022-11-12T11:59:37;100490.78;;;9.85;100.00
49877;BME280;35771;48.978;9.294;2022-11-12T12:02:39;100504.75;;;10.00;100.00
49877;BME280;35771;48.978;9.294;2022-11-12T12:05:20;100479.44;;;10.00;100.00
49877;BME280;35771;48.978;9.294;2022-11-12T12:07:54;100493.94;;;10.18;100.00
49877;BME280;35771;48.978;9.294;2022-11-12T12:10:29;100487.75;;;10.26;100.00
49877;BME280;35771;48.978;9.294;2022-11-12T12:13:08;100475.31;;;10.23;100.00
49877;BME280;35771;48.978;9.294;2022-11-12T12:15:50;100483.78;;;10.20;100.00
49877;BME280;35771;48.978;9.294;2022-11-12T12:18:28;100479.75;;;10.24;100.00
49877;BME280;35771;48.978;9.294;2022-11-12T12:21:00;100466.50;;;10.12;100.00
49877;BME280;35771;48.978;9.294;2022-11-12T12:23:33;100487.03;;;10.34;100.00
49877;BME280;35771;48.978;9.294;2022-11-12T12:26:04;100489.00;;;10.41;100.00
49877;BME280;35771;48.978;9.294;2022-11-12T12:28:36;100459.81;;;10.43;100.00
49877;BME280;35771;48.978;9.294;2022-11-12T12:31:08;100466.56;;;10.30;100.00
49877;BME280;35771;48.978;9.294;2022-11-12T12:33:42;100460.19;;;10.21;100.00
49877;BME280;35771;48.978;9.294;2022-11-12T12:36:14;100461.03;;;10.21;100.00
49877;BME280;35771;48.978;9.294;2022-11-12T12:38:46;100474.09;;;10.45;100.00
49877;BME280;35771;48.978;9.294;2022-11-12T12:41:18;100455.06;;;10.45;100.00
49877;BME280;35771;48.978;9.294;2022-11-12T12:43:53;100437.53;;;10.30;100.00
49877;BME280;35771;48.978;9.294;2022-11-12T12:46:24;100454.53;;;10.42;100.00
49877;BME280;35771;48.978;9.294;2022-11-12T12:48:53;100445.50;;;10.41;100.00
49877;BME280;35771;48.978;9.294;2022-11-12T12:51:20;100429.22;;;10.32;100.00
49877;BME280;35771;48.978;9.294;2022-11-12T12:53:48;100422.06;;;10.31;100.00
49877;BME280;35771;48.978;9.294;2022-11-12T12:59:21;100439.59;;;10.46;100.00
49877;BME280;35771;48.978;9.294;2022-11-12T13:01:58;100437.03;;;10.44;100.00
49877;BME280;35771;48.978;9.294;2022-11-12T13:04:50;100439.56;;;10.56;100.00
49877;BME280;35771;48.978;9.294;2022-11-12T13:07:38;100437.78;;;10.65;100.00
49877;BME280;35771;48.978;9.294;2022-11-12T13:13:42;100438.78;;;10.63;100.00
49877;BME280;35771;48.978;9.294;2022-11-12T13:16:09;100424.66;;;10.60;100.00
49877;BME280;35771;48.978;9.294;2022-11-12T13:18:58;100425.09;;;10.55;100.00
49877;BME280;35771;48.978;9.294;2022-11-12T13:21:27;100430.63;;;10.63;100.00
49877;BME280;35771;48.978;9.294;2022-11-12T13:23:58;100411.88;;;10.60;100.00
49877;BME280;35771;48.978;9.294;2022-11-12T13:26:50;100415.44;;;10.61;100.00
49877;BME280;35771;48.978;9.294;2022-11-12T13:29:41;100415.88;;;10.66;100.00
49877;BME280;35771;48.978;9.294;2022-11-12T13:32:28;100418.47;;;10.58;100.00
49877;BME280;35771;48.978;9.294;2022-11-12T13:35:24;100421.47;;;10.65;100.00
49877;BME280;35771;48.978;9.294;2022-11-12T13:37:52;100401.53;;;10.64;100.00
49877;BME280;35771;48.978;9.294;2022-11-12T13:40:32;100393.78;;;10.51;100.00
49877;BME280;35771;48.978;9.294;2022-11-12T13:43:08;100407.59;;;10.58;100.00
49877;BME280;35771;48.978;9.294;2022-11-12T13:45:40;100387.72;;;10.39;100.00
49877;BME280;35771;48.978;9.294;2022-11-12T13:48:12;100385.78;;;10.50;100.00
49877;BME280;35771;48.978;9.294;2022-11-12T13:50:48;100404.25;;;10.64;100.00
49877;BME280;35771;48.978;9.294;2022-11-12T13:53:19;100383.22;;;10.48;100.00
49877;BME280;35771;48.978;9.294;2022-11-12T13:55:48;100400.47;;;10.57;100.00
49877;BME280;35771;48.978;9.294;2022-11-12T13:58:18;100391.91;;;10.52;100.00
49877;BME280;35771;48.978;9.294;2022-11-12T14:00:52;100410.59;;;10.65;100.00
49877;BME280;35771;48.978;9.294;2022-11-12T14:03:20;100388.72;;;10.56;100.00
49877;BME280;35771;48.978;9.294;2022-11-12T14:05:49;100397.66;;;10.49;100.00
49877;BME280;35771;48.978;9.294;2022-11-12T14:08:34;100394.25;;;10.47;100.00
49877;BME280;35771;48.978;9.294;2022-11-12T14:11:17;100406.66;;;10.49;100.00
49877;BME280;35771;48.978;9.294;2022-11-12T14:13:54;100386.88;;;10.29;100.00
49877;BME280;35771;48.978;9.294;2022-11-12T14:16:41;100384.63;;;10.34;100.00
49877;BME280;35771;48.978;9.294;2022-11-12T14:19:23;100396.56;;;10.41;100.00
49877;BME280;35771;48.978;9.294;2022-11-12T14:22:00;100389.75;;;10.27;100.00
49877;BME280;35771;48.978;9.294;2022-11-12T14:24:27;100382.44;;;10.28;100.00
49877;BME280;35771;48.978;9.294;2022-11-12T14:26:54;100399.28;;;10.41;100.00
49877;BME280;35771;48.978;9.294;2022-11-12T14:29:20;100396.03;;;10.38;100.00
49877;BME280;35771;48.978;9.294;2022-11-12T14:31:58;100375.94;;;10.21;100.00
49877;BME280;35771;48.978;9.294;2022-11-12T14:34:27;100376.94;;;10.20;100.00
49877;BME280;35771;48.978;9.294;2022-11-12T14:36:54;100389.91;;;10.26;100.00
49877;BME280;35771;48.978;9.294;2022-11-12T14:39:24;100390.22;;;10.23;100.00
49877;BME280;35771;48.978;9.294;2022-11-12T14:41:53;100363.81;;;10.15;100.00
49877;BME280;35771;48.978;9.294;2022-11-12T14:44:22;100389.69;;;10.19;100.00
49877;BME280;35771;48.978;9.294;2022-11-12T14:46:51;100366.56;;;10.05;100.00
49877;BME280;35771;48.978;9.294;2022-11-12T14:49:23;100372.16;;;10.04;100.00
49877;BME280;35771;48.978;9.294;2022-11-12T14:51:55;100366.06;;;9.92;100.00
49877;BME280;35771;48.978;9.294;2022-11-12T14:54:31;100352.03;;;9.79;100.00
49877;BME280;35771;48.978;9.294;2022-11-12T14:57:01;100370.72;;;9.82;100.00
49877;BME280;35771;48.978;9.294;2022-11-12T14:59:29;100373.47;;;9.72;100.00
49877;BME280;35771;48.978;9.294;2022-11-12T15:02:04;100355.28;;;9.54;100.00
49877;BME280;35771;48.978;9.294;2022-11-12T15:04:36;100367.69;;;9.57;100.00
49877;BME280;35771;48.978;9.294;2022-11-12T15:07:04;100373.97;;;9.57;100.00
49877;BME280;35771;48.978;9.294;2022-11-12T15:09:34;100360.34;;;9.39;100.00
49877;BME280;35771;48.978;9.294;2022-11-12T15:12:03;100371.59;;;9.45;100.00
49877;BME280;35771;48.978;9.294;2022-11-12T15:14:30;100369.91;;;9.34;100.00
49877;BME280;35771;48.978;9.294;2022-11-12T15:16:57;100372.34;;;9.27;100.00
49877;BME280;35771;48.978;9.294;2022-11-12T15:19:26;100355.97;;;9.09;100.00
49877;BME280;35771;48.978;9.294;2022-11-12T15:21:54;100371.94;;;9.22;100.00
49877;BME280;35771;48.978;9.294;2022-11-12T15:24:27;100350.44;;;9.01;100.00
49877;BME280;35771;48.978;9.294;2022-11-12T15:26:58;100355.16;;;8.99;100.00
49877;BME280;35771;48.978;9.294;2022-11-12T15:29:28;100349.72;;;8.89;100.00
49877;BME280;35771;48.978;9.294;2022-11-12T15:31:57;100357.84;;;8.89;100.00
49877;BME280;35771;48.978;9.294;2022-11-12T15:34:26;100348.16;;;8.86;100.00
49877;BME280;35771;48.978;9.294;2022-11-12T15:36:53;100344.31;;;8.70;100.00
49877;BME280;35771;48.978;9.294;2022-11-12T15:39:20;100328.09;;;8.60;100.00
49877;BME280;35771;48.978;9.294;2022-11-12T15:41:57;100342.47;;;8.60;100.00
49877;BME280;35771;48.978;9.294;2022-11-12T15:44:24;100328.22;;;8.48;100.00
49877;BME280;35771;48.978;9.294;2022-11-12T15:46:52;100323.91;;;8.36;100.00
49877;BME280;35771;48.978;9.294;2022-11-12T15:49:18;100327.19;;;8.40;100.00
49877;BME280;35771;48.978;9.294;2022-11-12T15:51:45;100323.50;;;8.31;100.00
49877;BME280;35771;48.978;9.294;2022-11-12T15:54:12;100324.63;;;8.28;100.00
49877;BME280;35771;48.978;9.294;2022-11-12T15:56:38;100339.59;;;8.32;100.00
49877;BME280;35771;48.978;9.294;2022-11-12T15:59:08;100316.06;;;8.13;100.00
49877;BME280;35771;48.978;9.294;2022-11-12T16:01:37;100319.03;;;8.10;100.00
49877;BME280;35771;48.978;9.294;2022-11-12T16:04:04;100334.13;;;8.03;100.00
49877;BME280;35771;48.978;9.294;2022-11-12T16:06:30;100350.06;;;7.87;100.00
49877;BME280;35771;48.978;9.294;2022-11-12T16:08:57;100329.06;;;7.69;100.00
49877;BME280;35771;48.978;9.294;2022-11-12T16:11:24;100335.22;;;7.71;100.00
49877;BME280;35771;48.978;9.294;2022-11-12T16:14:08;100319.88;;;7.51;100.00
49877;BME280;35771;48.978;9.294;2022-11-12T16:16:36;100334.88;;;7.55;100.00
49877;BME280;35771;48.978;9.294;2022-11-12T16:19:10;100326.41;;;7.48;100.00
49877;BME280;35771;48.978;9.294;2022-11-12T16:21:37;100325.06;;;7.64;100.00
49877;BME280;35771;48.978;9.294;2022-11-12T16:24:04;100335.97;;;7.52;100.00
49877;BME280;35771;48.978;9.294;2022-11-12T16:26:31;100330.63;;;7.31;100.00
49877;BME280;35771;48.978;9.294;2022-11-12T16:29:02;100330.59;;;7.21;100.00
49877;BME280;35771;48.978;9.294;2022-11-12T16:31:30;100325.72;;;7.15;100.00
49877;BME280;35771;48.978;9.294;2022-11-12T16:33:57;100305.81;;;6.95;100.00
49877;BME280;35771;48.978;9.294;2022-11-12T16:36:24;100313.63;;;6.88;100.00
49877;BME280;35771;48.978;9.294;2022-11-12T16:38:57;100325.53;;;6.86;100.00
49877;BME280;35771;48.978;9.294;2022-11-12T16:41:24;100302.69;;;6.69;100.00
49877;BME280;35771;48.978;9.294;2022-11-12T16:43:50;100322.78;;;6.76;100.00
49877;BME280;35771;48.978;9.294;2022-11-12T16:46:23;100332.28;;;6.70;100.00
49877;BME280;35771;48.978;9.294;2022-11-12T16:48:51;100325.66;;;6.63;100.00
49877;BME280;35771;48.978;9.294;2022-11-12T16:51:19;100309.44;;;6.42;100.00
49877;BME280;35771;48.978;9.294;2022-11-12T16:53:46;100306.03;;;6.40;100.00
49877;BME280;35771;48.978;9.294;2022-11-12T16:56:16;100326.63;;;6.41;100.00
49877;BME280;35771;48.978;9.294;2022-11-12T16:58:44;100324.31;;;6.36;100.00
49877;BME280;35771;48.978;9.294;2022-11-12T17:01:13;100315.06;;;6.18;100.00
49877;BME280;35771;48.978;9.294;2022-11-12T17:03:40;100298.19;;;6.05;100.00
49877;BME280;35771;48.978;9.294;2022-11-12T17:06:08;100329.22;;;6.10;100.00
49877;BME280;35771;48.978;9.294;2022-11-12T17:08:35;100319.44;;;5.98;100.00
49877;BME280;35771;48.978;9.294;2022-11-12T17:11:06;100319.41;;;5.87;100.00
49877;BME280;35771;48.978;9.294;2022-11-12T17:13:34;100312.94;;;5.78;100.00
49877;BME280;35771;48.978;9.294;2022-11-12T17:16:00;100318.59;;;5.75;100.00
49877;BME280;35771;48.978;9.294;2022-11-12T17:18:27;100318.72;;;5.73;100.00
49877;BME280;35771;48.978;9.294;2022-11-12T17:20:54;100316.88;;;5.74;100.00
49877;BME280;35771;48.978;9.294;2022-11-12T17:23:22;100313.94;;;5.65;100.00
49877;BME280;35771;48.978;9.294;2022-11-12T17:25:58;100302.22;;;5.44;100.00
49877;BME280;35771;48.978;9.294;2022-11-12T17:28:26;100312.75;;;5.47;100.00
49877;BME280;35771;48.978;9.294;2022-11-12T17:31:01;100303.66;;;5.25;100.00
49877;BME280;35771;48.978;9.294;2022-11-12T17:33:27;100314.97;;;5.30;100.00
49877;BME280;35771;48.978;9.294;2022-11-12T17:35:59;100298.16;;;5.16;100.00
49877;BME280;35771;48.978;9.294;2022-11-12T17:38:28;100317.53;;;5.21;100.00
49877;BME280;35771;48.978;9.294;2022-11-12T17:40:55;100307.84;;;5.18;100.00
49877;BME280;35771;48.978;9.294;2022-11-12T17:43:21;100303.53;;;5.04;100.00
49877;BME280;35771;48.978;9.294;2022-11-12T17:45:48;100310.41;;;5.08;100.00
49877;BME280;35771;48.978;9.294;2022-11-12T17:48:15;100314.97;;;5.08;100.00
49877;BME280;35771;48.978;9.294;2022-11-12T17:50:42;100318.50;;;5.08;100.00
49877;BME280;35771;48.978;9.294;2022-11-12T17:53:09;100298.75;;;4.96;100.00
49877;BME280;35771;48.978;9.294;2022-11-12T17:55:37;100289.31;;;4.79;100.00
49877;BME280;35771;48.978;9.294;2022-11-12T17:58:03;100290.53;;;4.75;100.00
49877;BME280;35771;48.978;9.294;2022-11-12T18:00:30;100315.16;;;4.93;100.00
49877;BME280;35771;48.978;9.294;2022-11-12T18:02:57;100307.09;;;4.82;100.00
49877;BME280;35771;48.978;9.294;2022-11-12T18:05:24;100301.41;;;4.74;100.00
49877;BME280;35771;48.978;9.294;2022-11-12T18:07:50;100303.63;;;4.69;100.00
49877;BME280;35771;48.978;9.294;2022-11-12T18:10:17;100300.41;;;4.52;100.00
49877;BME280;35771;48.978;9.294;2022-11-12T18:12:45;100295.72;;;4.43;100.00
49877;BME280;35771;48.978;9.294;2022-11-12T18:15:12;100306.16;;;4.48;100.00
49877;BME280;35771;48.978;9.294;2022-11-12T18:17:38;100303.69;;;4.45;100.00
49877;BME280;35771;48.978;9.294;2022-11-12T18:20:06;100304.53;;;4.45;100.00
49877;BME280;35771;48.978;9.294;2022-11-12T18:22:36;100314.09;;;4.49;100.00
49877;BME280;35771;48.978;9.294;2022-11-12T18:25:03;100304.31;;;4.48;100.00
49877;BME280;35771;48.978;9.294;2022-11-12T18:27:30;100307.88;;;4.49;100.00
49877;BME280;35771;48.978;9.294;2022-11-12T18:29:58;100290.53;;;4.29;100.00
49877;BME280;35771;48.978;9.294;2022-11-12T18:32:25;100268.31;;;4.14;100.00
49877;BME280;35771;48.978;9.294;2022-11-12T18:34:52;100269.44;;;4.11;100.00
49877;BME280;35771;48.978;9.294;2022-11-12T18:37:18;100269.69;;;4.08;100.00
49877;BME280;35771;48.978;9.294;2022-11-12T18:39:45;100287.16;;;4.14;100.00
49877;BME280;35771;48.978;9.294;2022-11-12T18:42:11;100281.88;;;4.01;100.00
49877;BME280;35771;48.978;9.294;2022-11-12T18:44:38;100281.22;;;3.97;100.00
49877;BME280;35771;48.978;9.294;2022-11-12T18:47:06;100270.41;;;3.86;100.00
49877;BME280;35771;48.978;9.294;2022-11-12T18:49:35;100282.91;;;3.87;100.00
49877;BME280;35771;48.978;9.294;2022-11-12T18:52:02;100277.72;;;3.84;100.00
49877;BME280;35771;48.978;9.294;2022-11-12T18:54:29;100266.56;;;3.77;100.00
49877;BME280;35771;48.978;9.294;2022-11-12T18:56:55;100270.22;;;3.76;100.00
49877;BME280;35771;48.978;9.294;2022-11-12T18:59:22;100289.97;;;3.88;100.00
49877;BME280;35771;48.978;9.294;2022-11-12T19:01:54;100279.19;;;3.77;100.00
49877;BME280;35771;48.978;9.294;2022-11-12T19:04:22;100275.69;;;3.63;100.00
49877;BME280;35771;48.978;9.294;2022-11-12T19:06:49;100270.31;;;3.50;100.00
49877;BME280;35771;48.978;9.294;2022-11-12T19:09:16;100282.88;;;3.63;100.00
49877;BME280;35771;48.978;9.294;2022-11-12T19:11:42;100264.59;;;3.55;100.00
49877;BME280;35771;48.978;9.294;2022-11-12T19:14:09;100269.38;;;3.51;100.00
49877;BME280;35771;48.978;9.294;2022-11-12T19:16:38;100260.22;;;3.54;100.00
49877;BME280;35771;48.978;9.294;2022-11-12T19:19:07;100261.53;;;3.48;100.00
49877;BME280;35771;48.978;9.294;2022-11-12T19:21:35;100249.72;;;3.38;100.00
49877;BME280;35771;48.978;9.294;2022-11-12T19:24:02;100261.22;;;3.40;100.00
49877;BME280;35771;48.978;9.294;2022-11-12T19:26:29;100260.94;;;3.32;100.00
49877;BME280;35771;48.978;9.294;2022-11-12T19:28:55;100256.28;;;3.34;100.00
49877;BME280;35771;48.978;9.294;2022-11-12T19:31:23;100285.50;;;3.51;100.00
49877;BME280;35771;48.978;9.294;2022-11-12T19:33:51;100257.50;;;3.30;100.00
49877;BME280;35771;48.978;9.294;2022-11-12T19:36:19;100264.34;;;3.47;100.00
49877;BME280;35771;48.978;9.294;2022-11-12T19:38:52;100247.47;;;3.45;100.00
49877;BME280;35771;48.978;9.294;2022-11-12T19:41:20;100273.94;;;3.62;100.00
49877;BME280;35771;48.978;9.294;2022-11-12T19:43:48;100277.59;;;3.61;100.00
49877;BME280;35771;48.978;9.294;2022-11-12T19:46:14;100262.69;;;3.57;100.00
49877;BME280;35771;48.978;9.294;2022-11-12T19:48:41;100267.06;;;3.58;100.00
49877;BME280;35771;48.978;9.294;2022-11-12T19:51:09;100251.97;;;3.44;100.00
49877;BME280;35771;48.978;9.294;2022-11-12T19:54:02;100271.16;;;3.64;100.00
49877;BME280;35771;48.978;9.294;2022-11-12T19:56:42;100263.88;;;3.53;100.00
49877;BME280;35771;48.978;9.294;2022-11-12T19:59:09;100267.63;;;3.50;100.00
49877;BME280;35771;48.978;9.294;2022-11-12T20:01:39;100268.19;;;3.56;100.00
49877;BME280;35771;48.978;9.294;2022-11-12T20:04:19;100273.00;;;3.63;100.00
49877;BME280;35771;48.978;9.294;2022-11-12T20:06:46;100247.97;;;3.50;100.00
49877;BME280;35771;48.978;9.294;2022-11-12T20:09:14;100272.09;;;3.63;100.00
49877;BME280;35771;48.978;9.294;2022-11-12T20:11:41;100266.22;;;3.58;100.00
49877;BME280;35771;48.978;9.294;2022-11-12T20:14:07;100251.16;;;3.55;100.00
49877;BME280;35771;48.978;9.294;2022-11-12T20:16:34;100263.50;;;3.70;100.00
49877;BME280;35771;48.978;9.294;2022-11-12T20:19:00;100249.63;;;3.64;100.00
49877;BME280;35771;48.978;9.294;2022-11-12T20:21:27;100270.19;;;3.65;100.00
49877;BME280;35771;48.978;9.294;2022-11-12T20:23:55;100258.16;;;3.58;100.00
49877;BME280;35771;48.978;9.294;2022-11-12T20:26:23;100237.94;;;3.52;100.00
49877;BME280;35771;48.978;9.294;2022-11-12T20:28:51;100244.72;;;3.58;100.00
49877;BME280;35771;48.978;9.294;2022-11-12T20:31:18;100241.63;;;3.51;100.00
49877;BME280;35771;48.978;9.294;2022-11-12T20:33:45;100246.66;;;3.56;100.00
49877;BME280;35771;48.978;9.294;2022-11-12T20:36:14;100237.22;;;3.50;100.00
49877;BME280;35771;48.978;9.294;2022-11-12T20:38:43;100219.94;;;3.41;100.00
49877;BME280;35771;48.978;9.294;2022-11-12T20:41:12;100222.84;;;3.38;100.00
49877;BME280;35771;48.978;9.294;2022-11-12T20:43:41;100226.25;;;3.40;100.00
49877;BME280;35771;48.978;9.294;2022-11-12T20:46:09;100223.47;;;3.42;100.00
49877;BME280;35771;48.978;9.294;2022-11-12T20:48:36;100232.28;;;3.44;100.00
49877;BME280;35771;48.978;9.294;2022-11-12T20:51:04;100213.16;;;3.35;100.00
49877;BME280;35771;48.978;9.294;2022-11-12T20:53:32;100221.00;;;3.39;100.00
49877;BME280;35771;48.978;9.294;2022-11-12T20:56:06;100231.97;;;3.35;100.00
49877;BME280;35771;48.978;9.294;2022-11-12T20:58:34;100241.09;;;3.46;100.00
49877;BME280;35771;48.978;9.294;2022-11-12T21:01:02;100212.44;;;3.33;100.00
49877;BME280;35771;48.978;9.294;2022-11-12T21:03:32;100235.09;;;3.42;100.00
49877;BME280;35771;48.978;9.294;2022-11-12T21:06:02;100209.63;;;3.35;100.00
49877;BME280;35771;48.978;9.294;2022-11-12T21:08:30;100236.47;;;3.48;100.00
49877;BME280;35771;48.978;9.294;2022-11-12T21:10:58;100219.09;;;3.28;100.00
49877;BME280;35771;48.978;9.294;2022-11-12T21:13:25;100223.66;;;3.14;100.00
49877;BME280;35771;48.978;9.294;2022-11-12T21:15:51;100227.78;;;3.07;100.00
49877;BME280;35771;48.978;9.294;2022-11-12T21:18:23;100205.69;;;2.91;100.00
49877;BME280;35771;48.978;9.294;2022-11-12T21:20:50;100207.16;;;2.95;100.00
49877;BME280;35771;48.978;9.294;2022-11-12T21:23:16;100221.34;;;2.97;100.00
49877;BME280;35771;48.978;9.294;2022-11-12T21:25:43;100226.47;;;3.13;100.00
49877;BME280;35771;48.978;9.294;2022-11-12T21:28:10;100214.13;;;3.10;100.00
49877;BME280;35771;48.978;9.294;2022-11-12T21:30:37;100197.91;;;2.99;100.00
49877;BME280;35771;48.978;9.294;2022-11-12T21:33:04;100209.72;;;3.09;100.00
49877;BME280;35771;48.978;9.294;2022-11-12T21:35:32;100207.75;;;3.11;100.00
49877;BME280;35771;48.978;9.294;2022-11-12T21:37:58;100208.81;;;3.22;100.00
49877;BME280;35771;48.978;9.294;2022-11-12T21:40:25;100191.16;;;2.93;100.00
49877;BME280;35771;48.978;9.294;2022-11-12T21:42:52;100209.50;;;2.99;100.00
49877;BME280;35771;48.978;9.294;2022-11-12T21:45:18;100207.25;;;2.93;100.00
49877;BME280;35771;48.978;9.294;2022-11-12T21:47:45;100179.03;;;2.88;100.00
49877;BME280;35771;48.978;9.294;2022-11-12T21:50:11;100196.00;;;2.88;100.00
49877;BME280;35771;48.978;9.294;2022-11-12T21:52:39;100192.25;;;2.91;100.00
49877;BME280;35771;48.978;9.294;2022-11-12T21:55:06;100191.38;;;2.90;100.00
49877;BME280;35771;48.978;9.294;2022-11-12T21:57:33;100201.13;;;3.04;100.00
49877;BME280;35771;48.978;9.294;2022-11-12T22:00:00;100205.41;;;3.07;100.00
49877;BME280;35771;48.978;9.294;2022-11-12T22:02:26;100192.53;;;2.99;100.00
49877;BME280;35771;48.978;9.294;2022-11-12T22:04:53;100192.31;;;3.02;100.00
49877;BME280;35771;48.978;9.294;2022-11-12T22:07:20;100187.59;;;3.06;100.00
49877;BME280;35771;48.978;9.294;2022-11-12T22:09:48;100180.06;;;2.98;100.00
49877;BME280;35771;48.978;9.294;2022-11-12T22:12:14;100191.69;;;2.98;100.00
49877;BME280;35771;48.978;9.294;2022-11-12T22:14:41;100173.22;;;2.81;100.00
49877;BME280;35771;48.978;9.294;2022-11-12T22:17:08;100187.88;;;2.64;100.00
49877;BME280;35771;48.978;9.294;2022-11-12T22:19:34;100186.69;;;2.68;100.00
49877;BME280;35771;48.978;9.294;2022-11-12T22:22:03;100182.09;;;2.44;100.00
49877;BME280;35771;48.978;9.294;2022-11-12T22:24:29;100171.88;;;2.50;100.00
49877;BME280;35771;48.978;9.294;2022-11-12T22:26:58;100180.25;;;2.58;100.00
49877;BME280;35771;48.978;9.294;2022-11-12T22:29:24;100172.63;;;2.64;100.00
49877;BME280;35771;48.978;9.294;2022-11-12T22:31:51;100167.34;;;2.76;100.00
49877;BME280;35771;48.978;9.294;2022-11-12T22:34:17;100152.97;;;2.64;100.00
49877;BME280;35771;48.978;9.294;2022-11-12T22:36:44;100160.38;;;2.73;100.00
49877;BME280;35771;48.978;9.294;2022-11-12T22:39:10;100181.50;;;2.78;100.00
49877;BME280;35771;48.978;9.294;2022-11-12T22:41:37;100174.09;;;2.81;100.00
49877;BME280;35771;48.978;9.294;2022-11-12T22:44:05;100165.84;;;2.72;100.00
49877;BME280;35771;48.978;9.294;2022-11-12T22:46:33;100159.84;;;2.68;100.00
49877;BME280;35771;48.978;9.294;2022-11-12T22:49:00;100133.34;;;2.63;100.00
49877;BME280;35771;48.978;9.294;2022-11-12T22:51:29;100144.38;;;2.59;100.00
49877;BME280;35771;48.978;9.294;2022-11-12T22:53:57;100136.13;;;2.49;100.00
49877;BME280;35771;48.978;9.294;2022-11-12T22:56:25;100157.78;;;2.72;100.00
49877;BME280;35771;48.978;9.294;2022-11-12T22:58:53;100154.59;;;2.67;100.00
49877;BME280;35771;48.978;9.294;2022-11-12T23:01:22;100125.28;;;2.51;100.00
49877;BME280;35771;48.978;9.294;2022-11-12T23:03:50;100141.28;;;2.65;100.00
49877;BME280;35771;48.978;9.294;2022-11-12T23:06:17;100149.09;;;2.68;100.00
49877;BME280;35771;48.978;9.294;2022-11-12T23:08:44;100147.91;;;2.72;100.00
49877;BME280;35771;48.978;9.294;2022-11-12T23:11:13;100148.66;;;2.74;100.00
49877;BME280;35771;48.978;9.294;2022-11-12T23:13:40;100114.75;;;2.47;100.00
49877;BME280;35771;48.978;9.294;2022-11-12T23:16:09;100126.47;;;2.59;100.00
49877;BME280;35771;48.978;9.294;2022-11-12T23:18:37;100135.78;;;2.67;100.00
49877;BME280;35771;48.978;9.294;2022-11-12T23:21:06;100132.34;;;2.64;100.00
49877;BME280;35771;48.978;9.294;2022-11-12T23:23:33;100133.22;;;2.65;100.00
49877;BME280;35771;48.978;9.294;2022-11-12T23:26:02;100110.78;;;2.40;100.00
49877;BME280;35771;48.978;9.294;2022-11-12T23:28:30;100117.44;;;2.47;100.00
49877;BME280;35771;48.978;9.294;2022-11-12T23:31:00;100111.25;;;2.34;100.00
49877;BME280;35771;48.978;9.294;2022-11-12T23:33:27;100132.06;;;2.43;100.00
49877;BME280;35771;48.978;9.294;2022-11-12T23:36:03;100117.00;;;2.41;100.00
49877;BME280;35771;48.978;9.294;2022-11-12T23:38:30;100097.72;;;2.23;100.00